createdAt,value
2018-03-19T00:00:30.608Z,0.00
2018-03-19T00:01:30.783Z,0.00
2018-03-19T00:02:30.959Z,0.00
2018-03-19T00:03:31.125Z,0.00
2018-03-19T00:04:31.289Z,0.00
2018-03-19T00:05:31.458Z,0.00
2018-03-19T00:06:31.632Z,0.00
2018-03-19T00:07:31.804Z,0.00
2018-03-19T00:08:32.357Z,0.00
2018-03-19T00:09:32.152Z,0.00
2018-03-19T00:10:32.317Z,0.00
2018-03-19T00:11:32.476Z,0.00
2018-03-19T00:12:32.642Z,0.00
2018-03-19T00:13:32.813Z,0.00
2018-03-19T00:14:32.989Z,0.00
2018-03-19T00:15:33.157Z,0.00
2018-03-19T00:16:33.327Z,0.00
2018-03-19T00:17:33.491Z,0.00
2018-03-19T00:18:33.665Z,0.00
2018-03-19T00:19:33.833Z,0.00
2018-03-19T00:20:34.004Z,0.00
2018-03-19T00:21:34.208Z,0.00
2018-03-19T00:22:34.342Z,0.00
2018-03-19T00:23:34.523Z,0.00
2018-03-19T00:24:34.690Z,0.00
2018-03-19T00:25:34.855Z,0.00
2018-03-19T00:26:35.033Z,0.00
2018-03-19T00:27:35.205Z,0.00
2018-03-19T00:28:35.363Z,0.00
2018-03-19T00:29:35.530Z,0.00
2018-03-19T00:30:35.699Z,0.00
2018-03-19T00:31:35.873Z,0.00
2018-03-19T00:32:36.041Z,0.00
2018-03-19T00:33:36.213Z,0.00
2018-03-19T00:34:36.373Z,0.00
2018-03-19T00:35:36.541Z,0.00
2018-03-19T00:36:36.712Z,0.00
2018-03-19T00:37:36.883Z,0.00
2018-03-19T00:38:37.049Z,0.00
2018-03-19T00:39:37.222Z,0.00
2018-03-19T00:40:37.386Z,0.00
2018-03-19T00:41:37.564Z,0.00
2018-03-19T00:42:37.725Z,0.00
2018-03-19T00:43:37.900Z,0.00
2018-03-19T00:45:38.235Z,0.00
2018-03-19T00:46:38.400Z,0.00
2018-03-19T00:47:38.572Z,0.00
2018-03-19T00:48:38.741Z,0.00
2018-03-19T00:49:38.910Z,0.00
2018-03-19T00:50:39.077Z,0.00
2018-03-19T00:51:39.249Z,0.00
2018-03-19T00:52:39.413Z,0.00
2018-03-19T00:53:39.577Z,0.00
2018-03-19T00:54:39.760Z,0.00
2018-03-19T00:55:39.922Z,0.00
2018-03-19T00:56:40.102Z,0.00
2018-03-19T00:57:40.273Z,0.00
2018-03-19T00:58:40.425Z,0.00
2018-03-19T00:59:40.597Z,0.00
2018-03-19T01:00:40.768Z,0.00
2018-03-19T01:01:40.936Z,0.00
2018-03-19T01:02:41.107Z,0.00
2018-03-19T01:03:41.280Z,0.00
2018-03-19T01:04:41.446Z,0.00
2018-03-19T01:05:41.618Z,0.00
2018-03-19T01:06:41.793Z,0.00
2018-03-19T01:07:41.953Z,0.00
2018-03-19T01:08:42.124Z,0.00
2018-03-19T01:09:42.293Z,0.00
2018-03-19T01:10:42.498Z,0.00
2018-03-19T01:11:42.630Z,0.00
2018-03-19T01:12:42.800Z,0.00
2018-03-19T01:13:42.968Z,0.00
2018-03-19T01:14:43.142Z,0.00
2018-03-19T01:15:43.316Z,0.00
2018-03-19T01:16:43.467Z,0.00
2018-03-19T01:17:43.625Z,0.00
2018-03-19T01:18:43.801Z,0.00
2018-03-19T01:19:43.972Z,0.00
2018-03-19T01:20:44.470Z,0.00
2018-03-19T01:21:44.310Z,0.00
2018-03-19T01:22:44.485Z,0.00
2018-03-19T01:23:44.649Z,0.00
2018-03-19T01:24:44.818Z,0.00
2018-03-19T01:25:44.988Z,0.00
2018-03-19T01:26:45.165Z,0.00
2018-03-19T01:27:45.327Z,0.00
2018-03-19T01:28:45.511Z,0.00
2018-03-19T01:29:45.664Z,0.00
2018-03-19T01:30:45.834Z,0.00
2018-03-19T01:31:46.001Z,0.00
2018-03-19T01:32:46.175Z,0.00
2018-03-19T01:33:46.623Z,0.00
2018-03-19T01:34:46.512Z,0.00
2018-03-19T01:35:46.672Z,0.00
2018-03-19T01:36:46.840Z,0.00
2018-03-19T01:37:47.026Z,0.00
2018-03-19T01:38:47.180Z,0.00
2018-03-19T01:39:47.348Z,0.00
2018-03-19T01:40:47.527Z,0.00
2018-03-19T01:41:47.683Z,0.00
2018-03-19T01:42:47.853Z,0.00
2018-03-19T01:43:48.024Z,0.00
2018-03-19T01:44:48.190Z,0.00
2018-03-19T01:45:48.369Z,0.00
2018-03-19T01:46:48.533Z,0.00
2018-03-19T01:47:48.696Z,0.00
2018-03-19T01:48:48.868Z,0.00
2018-03-19T01:49:49.037Z,0.00
2018-03-19T01:50:49.209Z,0.00
2018-03-19T01:51:49.371Z,0.00
2018-03-19T01:52:49.540Z,0.00
2018-03-19T01:53:49.708Z,0.00
2018-03-19T01:54:49.878Z,0.00
2018-03-19T01:55:50.056Z,0.00
2018-03-19T01:56:50.218Z,0.00
2018-03-19T01:57:50.384Z,0.00
2018-03-19T01:58:50.553Z,0.00
2018-03-19T01:59:50.717Z,0.00
2018-03-19T02:00:50.896Z,0.00
2018-03-19T02:01:51.059Z,0.00
2018-03-19T02:02:51.229Z,0.00
2018-03-19T02:03:51.398Z,0.00
2018-03-19T02:04:51.588Z,0.00
2018-03-19T02:05:51.728Z,0.00
2018-03-19T02:06:51.899Z,0.00
2018-03-19T02:07:52.073Z,0.00
2018-03-19T02:08:52.245Z,0.00
2018-03-19T02:09:52.409Z,0.00
2018-03-19T02:10:52.576Z,0.00
2018-03-19T02:11:52.747Z,0.00
2018-03-19T02:12:52.908Z,0.00
2018-03-19T02:13:53.085Z,0.00
2018-03-19T02:14:53.255Z,0.00
2018-03-19T02:15:53.421Z,0.00
2018-03-19T02:16:53.586Z,0.00
2018-03-19T02:17:53.767Z,0.00
2018-03-19T02:18:53.921Z,0.00
2018-03-19T02:19:54.088Z,0.00
2018-03-19T02:20:54.257Z,0.00
2018-03-19T02:21:54.426Z,0.00
2018-03-19T02:22:54.599Z,0.00
2018-03-19T02:23:54.767Z,0.00
2018-03-19T02:24:54.937Z,0.00
2018-03-19T02:25:55.105Z,0.00
2018-03-19T02:26:55.280Z,0.00
2018-03-19T02:27:55.450Z,0.00
2018-03-19T02:28:55.618Z,0.00
2018-03-19T02:29:55.786Z,0.00
2018-03-19T02:30:55.957Z,0.00
2018-03-19T02:31:56.125Z,0.00
2018-03-19T02:32:56.296Z,0.00
2018-03-19T02:33:56.463Z,0.00
2018-03-19T02:34:56.638Z,0.00
2018-03-19T02:35:56.802Z,0.00
2018-03-19T02:36:56.967Z,0.00
2018-03-19T02:37:57.142Z,0.00
2018-03-19T02:38:57.304Z,0.00
2018-03-19T02:39:57.475Z,0.00
2018-03-19T02:40:57.643Z,0.00
2018-03-19T02:41:57.813Z,0.00
2018-03-19T02:42:57.982Z,0.00
2018-03-19T02:43:58.151Z,0.00
2018-03-19T02:44:58.320Z,0.00
2018-03-19T02:45:58.489Z,0.00
2018-03-19T02:46:58.695Z,0.00
2018-03-19T02:47:58.829Z,0.00
2018-03-19T02:48:59.000Z,0.00
2018-03-19T02:49:59.158Z,0.00
2018-03-19T02:50:59.326Z,0.00
2018-03-19T02:51:59.513Z,0.00
2018-03-19T02:52:59.664Z,0.00
2018-03-19T02:53:59.838Z,0.00
2018-03-19T02:55:00.007Z,0.00
2018-03-19T02:56:00.171Z,0.00
2018-03-19T02:57:00.344Z,0.00
2018-03-19T02:58:00.508Z,0.00
2018-03-19T02:59:00.674Z,0.00
2018-03-19T03:00:00.846Z,0.00
2018-03-19T03:01:01.021Z,0.00
2018-03-19T03:02:01.180Z,0.00
2018-03-19T03:03:01.348Z,0.00
2018-03-19T03:04:01.517Z,0.00
2018-03-19T03:05:01.694Z,0.00
2018-03-19T03:06:01.863Z,0.00
2018-03-19T03:07:02.024Z,0.00
2018-03-19T03:08:02.186Z,0.00
2018-03-19T03:09:02.354Z,0.00
2018-03-19T03:10:02.522Z,0.00
2018-03-19T03:11:02.687Z,0.00
2018-03-19T03:12:02.858Z,0.00
2018-03-19T03:13:03.025Z,0.00
2018-03-19T03:14:03.194Z,0.00
2018-03-19T03:15:03.360Z,0.00
2018-03-19T03:16:03.531Z,0.00
2018-03-19T03:17:03.703Z,0.00
2018-03-19T03:18:04.184Z,0.00
2018-03-19T03:19:04.038Z,0.00
2018-03-19T03:20:04.206Z,0.00
2018-03-19T03:21:04.376Z,0.00
2018-03-19T03:22:04.540Z,0.00
2018-03-19T03:23:04.712Z,0.00
2018-03-19T03:24:04.881Z,0.00
2018-03-19T03:25:05.065Z,0.00
2018-03-19T03:26:05.217Z,0.00
2018-03-19T03:27:05.382Z,0.00
2018-03-19T03:28:05.558Z,0.00
2018-03-19T03:29:05.714Z,0.00
2018-03-19T03:30:05.896Z,0.00
2018-03-19T03:32:06.216Z,0.00
2018-03-19T03:33:06.385Z,0.00
2018-03-19T03:34:06.555Z,0.00
2018-03-19T03:35:06.734Z,0.00
2018-03-19T03:36:06.887Z,0.00
2018-03-19T03:37:07.065Z,0.00
2018-03-19T03:38:07.236Z,0.00
2018-03-19T03:39:07.399Z,0.00
2018-03-19T03:40:07.571Z,0.00
2018-03-19T03:41:08.106Z,0.00
2018-03-19T03:42:07.910Z,0.00
2018-03-19T03:43:08.079Z,0.00
2018-03-19T03:45:08.409Z,0.00
2018-03-19T03:46:08.577Z,0.00
2018-03-19T03:47:08.749Z,0.00
2018-03-19T03:48:08.916Z,0.00
2018-03-19T03:49:09.102Z,0.00
2018-03-19T03:50:09.253Z,0.00
2018-03-19T03:51:09.418Z,0.00
2018-03-19T03:52:09.590Z,0.00
2018-03-19T03:53:09.756Z,0.00
2018-03-19T03:54:09.932Z,0.00
2018-03-19T03:55:10.094Z,0.00
2018-03-19T03:56:10.271Z,0.00
2018-03-19T03:57:10.431Z,0.00
2018-03-19T03:58:10.590Z,0.00
2018-03-19T03:59:10.759Z,0.00
2018-03-19T04:00:10.929Z,0.00
2018-03-19T04:01:11.097Z,0.00
2018-03-19T04:02:11.269Z,0.00
2018-03-19T04:03:11.431Z,0.00
2018-03-19T04:04:11.592Z,0.00
2018-03-19T04:05:11.772Z,0.00
2018-03-19T04:06:11.940Z,0.00
2018-03-19T04:07:12.478Z,0.00
2018-03-19T04:08:12.284Z,0.00
2018-03-19T04:09:12.447Z,0.00
2018-03-19T04:10:12.617Z,0.00
2018-03-19T04:11:12.786Z,0.00
2018-03-19T04:12:12.954Z,0.00
2018-03-19T04:13:13.125Z,0.00
2018-03-19T04:14:13.292Z,0.00
2018-03-19T04:15:13.463Z,0.00
2018-03-19T04:16:13.624Z,0.00
2018-03-19T04:17:13.801Z,0.00
2018-03-19T04:18:13.968Z,0.00
2018-03-19T04:19:14.141Z,0.00
2018-03-19T04:20:14.661Z,0.00
2018-03-19T04:21:14.468Z,0.00
2018-03-19T04:22:14.645Z,0.00
2018-03-19T04:23:14.810Z,0.00
2018-03-19T04:24:15.036Z,0.00
2018-03-19T04:25:15.147Z,0.00
2018-03-19T04:26:15.320Z,0.00
2018-03-19T04:27:15.497Z,0.00
2018-03-19T04:28:15.659Z,0.00
2018-03-19T04:29:15.818Z,0.00
2018-03-19T04:30:15.993Z,0.00
2018-03-19T04:31:16.156Z,0.00
2018-03-19T04:32:16.326Z,0.00
2018-03-19T04:33:16.501Z,0.00
2018-03-19T04:34:16.667Z,0.00
2018-03-19T04:35:16.839Z,0.00
2018-03-19T04:36:17.008Z,0.00
2018-03-19T04:37:17.182Z,0.00
2018-03-19T04:38:17.353Z,0.00
2018-03-19T04:39:17.524Z,0.00
2018-03-19T04:40:17.694Z,0.00
2018-03-19T04:41:17.859Z,0.00
2018-03-19T04:42:18.028Z,0.00
2018-03-19T04:43:18.200Z,0.00
2018-03-19T04:44:18.366Z,0.00
2018-03-19T04:45:18.534Z,0.00
2018-03-19T04:46:18.698Z,0.00
2018-03-19T04:47:18.867Z,0.00
2018-03-19T04:48:19.036Z,0.00
2018-03-19T04:49:19.202Z,0.00
2018-03-19T04:50:19.373Z,0.00
2018-03-19T04:51:19.552Z,0.00
2018-03-19T04:52:19.704Z,4.00
2018-03-19T04:53:19.874Z,4.00
2018-03-19T04:54:20.043Z,0.00
2018-03-19T04:55:20.208Z,0.00
2018-03-19T04:56:20.385Z,4.00
2018-03-19T04:57:20.549Z,4.00
2018-03-19T04:58:20.713Z,0.00
2018-03-19T04:59:20.884Z,4.00
2018-03-19T05:00:21.051Z,8.00
2018-03-19T05:01:21.219Z,4.00
2018-03-19T05:02:21.376Z,8.00
2018-03-19T05:03:21.577Z,8.00
2018-03-19T05:04:21.752Z,8.00
2018-03-19T05:05:21.881Z,12.00
2018-03-19T05:06:22.053Z,16.00
2018-03-19T05:07:22.224Z,16.00
2018-03-19T05:08:22.389Z,20.00
2018-03-19T05:09:22.564Z,24.00
2018-03-19T05:10:22.728Z,28.00
2018-03-19T05:11:22.896Z,36.00
2018-03-19T05:12:23.062Z,40.00
2018-03-19T05:13:23.236Z,44.00
2018-03-19T05:14:23.418Z,56.00
2018-03-19T05:15:23.568Z,68.00
2018-03-19T05:16:23.742Z,80.00
2018-03-19T05:17:23.910Z,92.00
2018-03-19T05:18:24.074Z,104.00
2018-03-19T05:19:24.248Z,116.00
2018-03-19T05:20:24.418Z,132.00
2018-03-19T05:21:24.583Z,144.00
2018-03-19T05:22:24.753Z,156.00
2018-03-19T05:23:24.924Z,168.00
2018-03-19T05:24:25.086Z,176.00
2018-03-19T05:25:25.256Z,188.00
2018-03-19T05:26:25.420Z,208.00
2018-03-19T05:27:25.589Z,228.00
2018-03-19T05:28:25.758Z,256.00
2018-03-19T05:29:25.927Z,284.00
2018-03-19T05:30:26.108Z,324.00
2018-03-19T05:31:26.271Z,356.00
2018-03-19T05:32:26.442Z,396.00
2018-03-19T05:33:26.607Z,440.00
2018-03-19T05:34:26.777Z,484.00
2018-03-19T05:35:26.939Z,528.00
2018-03-19T05:36:27.114Z,564.00
2018-03-19T05:37:27.282Z,604.00
2018-03-19T05:38:27.463Z,636.00
2018-03-19T05:39:27.620Z,684.00
2018-03-19T05:40:27.788Z,740.00
2018-03-19T05:41:27.958Z,804.00
2018-03-19T05:42:28.128Z,872.00
2018-03-19T05:43:28.297Z,936.00
2018-03-19T05:44:28.464Z,1008.00
2018-03-19T05:45:28.628Z,1080.00
2018-03-19T05:46:28.799Z,1160.00
2018-03-19T05:47:28.977Z,1248.00
2018-03-19T05:48:29.140Z,1332.00
2018-03-19T05:49:29.317Z,1416.00
2018-03-19T05:50:29.482Z,1480.00
2018-03-19T05:51:29.652Z,1552.00
2018-03-19T05:52:29.814Z,1628.00
2018-03-19T05:53:29.982Z,1716.00
2018-03-19T05:54:30.161Z,1800.00
2018-03-19T05:55:30.324Z,1900.00
2018-03-19T05:56:30.490Z,2000.00
2018-03-19T05:57:30.658Z,2096.00
2018-03-19T05:58:30.832Z,2204.00
2018-03-19T05:59:31.000Z,2308.00
2018-03-19T06:00:31.194Z,2416.00
2018-03-19T06:01:31.580Z,2520.00
2018-03-19T06:02:31.503Z,2644.00
2018-03-19T06:03:31.694Z,2764.00
2018-03-19T06:04:31.882Z,2876.00
2018-03-19T06:05:32.004Z,3016.00
2018-03-19T06:06:32.184Z,3152.00
2018-03-19T06:07:32.345Z,3292.00
2018-03-19T06:08:32.516Z,3436.00
2018-03-19T06:09:32.683Z,3588.00
2018-03-19T06:10:32.855Z,3756.00
2018-03-19T06:11:33.024Z,3916.00
2018-03-19T06:12:33.193Z,4100.00
2018-03-19T06:13:33.359Z,4272.00
2018-03-19T06:14:33.535Z,4416.00
2018-03-19T06:15:33.703Z,4748.00
2018-03-19T06:16:33.867Z,5032.00
2018-03-19T06:18:34.195Z,5180.00
2018-03-19T06:19:34.364Z,5536.00
2018-03-19T06:20:34.532Z,6000.00
2018-03-19T06:21:34.703Z,6416.00
2018-03-19T06:22:34.870Z,6832.00
2018-03-19T06:23:35.040Z,7000.00
2018-03-19T06:24:35.208Z,6912.00
2018-03-19T06:25:35.394Z,7060.00
2018-03-19T06:26:35.546Z,7684.00
2018-03-19T06:27:35.971Z,8160.00
2018-03-19T06:28:35.881Z,8392.00
2018-03-19T06:29:36.050Z,8408.00
2018-03-19T06:30:36.228Z,8400.00
2018-03-19T06:31:36.383Z,8328.00
2018-03-19T06:32:36.560Z,8492.00
2018-03-19T06:33:36.730Z,8912.00
2018-03-19T06:34:36.899Z,9008.00
2018-03-19T06:35:37.098Z,8792.00
2018-03-19T06:36:37.266Z,9448.00
2018-03-19T06:37:37.434Z,10896.00
2018-03-19T06:38:37.601Z,11992.00
2018-03-19T06:39:37.775Z,11676.00
2018-03-19T06:41:38.132Z,10732.00
2018-03-19T06:42:38.294Z,11004.00
2018-03-19T06:43:38.491Z,10868.00
2018-03-19T06:44:38.637Z,10580.00
2018-03-19T06:45:38.834Z,10192.00
2018-03-19T06:46:38.975Z,9736.00
2018-03-19T06:47:39.148Z,10100.00
2018-03-19T06:48:39.317Z,9944.00
2018-03-19T06:49:39.485Z,10464.00
2018-03-19T06:50:39.694Z,11652.00
2018-03-19T06:51:39.943Z,13760.00
2018-03-19T06:52:40.813Z,13760.00
2018-03-19T06:53:40.222Z,12508.00
2018-03-19T06:54:40.393Z,12248.00
2018-03-19T06:55:40.559Z,13036.00
2018-03-19T06:56:40.720Z,13452.00
2018-03-19T06:57:40.895Z,13176.00
2018-03-19T06:58:41.065Z,13532.00
2018-03-19T06:59:41.236Z,12908.00
2018-03-19T07:00:41.414Z,12424.00
2018-03-19T07:01:41.574Z,12276.00
2018-03-19T07:02:41.749Z,12192.00
2018-03-19T07:03:41.925Z,12040.00
2018-03-19T07:04:42.093Z,11944.00
2018-03-19T07:05:42.267Z,11456.00
2018-03-19T07:06:42.442Z,11656.00
2018-03-19T07:07:42.603Z,12172.00
2018-03-19T07:08:42.767Z,12420.00
2018-03-19T07:09:42.943Z,13088.00
2018-03-19T07:10:43.114Z,13464.00
2018-03-19T07:11:43.293Z,14040.00
2018-03-19T07:12:43.461Z,14528.00
2018-03-19T07:13:43.640Z,14340.00
2018-03-19T07:14:43.807Z,13936.00
2018-03-19T07:15:43.974Z,13488.00
2018-03-19T07:16:44.145Z,13056.00
2018-03-19T07:17:44.317Z,12296.00
2018-03-19T07:18:44.500Z,11656.00
2018-03-19T07:19:44.672Z,11692.00
2018-03-19T07:20:44.848Z,12464.00
2018-03-19T07:21:45.022Z,13888.00
2018-03-19T07:22:45.198Z,15808.00
2018-03-19T07:23:45.374Z,14912.00
2018-03-19T07:24:45.534Z,14452.00
2018-03-19T07:25:45.706Z,15584.00
2018-03-19T07:26:45.883Z,14420.00
2018-03-19T07:27:46.053Z,14912.00
2018-03-19T07:28:46.224Z,14252.00
2018-03-19T07:29:46.399Z,14256.00
2018-03-19T07:30:46.577Z,15264.00
2018-03-19T07:31:46.741Z,15584.00
2018-03-19T07:32:46.913Z,14848.00
2018-03-19T07:33:47.086Z,14472.00
2018-03-19T07:34:47.264Z,14196.00
2018-03-19T07:35:47.439Z,14976.00
2018-03-19T07:36:47.620Z,13204.00
2018-03-19T07:37:47.792Z,14080.00
2018-03-19T07:38:47.972Z,15840.00
2018-03-19T07:39:48.141Z,14356.00
2018-03-19T07:40:48.318Z,14672.00
2018-03-19T07:41:48.490Z,14752.00
2018-03-19T07:42:48.660Z,13460.00
2018-03-19T07:43:48.832Z,13840.00
2018-03-19T07:44:49.008Z,14068.00
2018-03-19T07:45:49.179Z,13288.00
2018-03-19T07:46:49.355Z,13404.00
2018-03-19T07:47:49.526Z,14208.00
2018-03-19T07:48:49.699Z,13656.00
2018-03-19T07:49:49.863Z,14880.00
2018-03-19T07:50:50.047Z,13860.00
2018-03-19T07:51:50.216Z,14460.00
2018-03-19T07:52:50.393Z,13092.00
2018-03-19T07:53:50.561Z,12972.00
2018-03-19T07:54:50.739Z,14204.00
2018-03-19T07:55:50.921Z,13692.00
2018-03-19T07:56:51.089Z,13340.00
2018-03-19T07:57:51.260Z,13256.00
2018-03-19T07:58:51.436Z,12696.00
2018-03-19T07:59:51.611Z,13860.00
2018-03-19T08:00:51.780Z,6692.00
2018-03-19T08:01:51.954Z,6628.00
2018-03-19T08:02:52.153Z,6560.00
2018-03-19T08:03:52.299Z,6564.00
2018-03-19T08:04:52.475Z,6824.00
2018-03-19T08:05:52.644Z,6956.00
2018-03-19T08:06:52.826Z,6784.00
2018-03-19T08:07:52.993Z,6624.00
2018-03-19T08:08:53.164Z,6392.00
2018-03-19T08:09:53.335Z,6496.00
2018-03-19T08:10:53.508Z,6512.00
2018-03-19T08:11:53.682Z,6564.00
2018-03-19T08:12:53.859Z,6704.00
2018-03-19T08:13:54.035Z,6784.00
2018-03-19T08:14:54.203Z,6752.00
2018-03-19T08:15:54.376Z,6828.00
2018-03-19T08:16:54.554Z,7228.00
2018-03-19T08:17:54.720Z,7360.00
2018-03-19T08:18:54.903Z,7396.00
2018-03-19T08:19:55.058Z,7372.00
2018-03-19T08:20:55.229Z,7132.00
2018-03-19T08:21:55.406Z,7128.00
2018-03-19T08:22:55.581Z,7324.00
2018-03-19T08:23:55.749Z,7272.00
2018-03-19T08:24:55.925Z,7280.00
2018-03-19T08:25:56.137Z,7352.00
2018-03-19T08:26:56.272Z,7464.00
2018-03-19T08:27:56.444Z,7520.00
2018-03-19T08:28:56.619Z,7556.00
2018-03-19T08:29:56.801Z,7600.00
2018-03-19T08:30:56.963Z,7712.00
2018-03-19T08:31:57.135Z,7584.00
2018-03-19T08:32:57.300Z,7500.00
2018-03-19T08:33:57.480Z,7544.00
2018-03-19T08:34:57.646Z,7776.00
2018-03-19T08:35:57.815Z,7984.00
2018-03-19T08:36:57.988Z,8236.00
2018-03-19T08:37:58.157Z,7876.00
2018-03-19T08:38:58.333Z,8012.00
2018-03-19T08:39:58.513Z,7864.00
2018-03-19T08:40:58.690Z,7988.00
2018-03-19T08:41:58.844Z,7848.00
2018-03-19T08:42:59.023Z,7924.00
2018-03-19T08:43:59.193Z,7904.00
2018-03-19T08:44:59.410Z,8248.00
2018-03-19T08:45:59.598Z,8096.00
2018-03-19T08:46:59.768Z,7976.00
2018-03-19T08:47:59.949Z,7860.00
2018-03-19T08:49:00.120Z,7744.00
2018-03-19T08:51:00.445Z,7872.00
2018-03-19T08:52:00.623Z,7960.00
2018-03-19T08:53:00.798Z,7684.00
2018-03-19T08:54:00.968Z,7824.00
2018-03-19T08:55:01.147Z,7764.00
2018-03-19T08:56:01.317Z,8092.00
2018-03-19T08:57:01.493Z,8100.00
2018-03-19T08:58:01.675Z,8228.00
2018-03-19T08:59:01.837Z,8104.00
2018-03-19T09:00:02.014Z,7728.00
2018-03-19T09:01:02.187Z,8184.00
2018-03-19T09:02:02.358Z,8196.00
2018-03-19T09:03:02.536Z,8848.00
2018-03-19T09:04:02.714Z,8864.00
2018-03-19T09:05:02.869Z,9416.00
2018-03-19T09:06:03.048Z,9304.00
2018-03-19T09:07:03.221Z,8428.00
2018-03-19T09:08:03.409Z,8468.00
2018-03-19T09:09:03.571Z,8584.00
2018-03-19T09:10:03.803Z,8956.00
2018-03-19T09:11:03.998Z,8728.00
2018-03-19T09:12:04.117Z,9016.00
2018-03-19T09:13:04.295Z,9264.00
2018-03-19T09:14:04.465Z,9488.00
2018-03-19T09:15:04.643Z,9796.00
2018-03-19T09:16:04.823Z,9928.00
2018-03-19T09:17:05.043Z,9884.00
2018-03-19T09:18:05.197Z,9604.00
2018-03-19T09:19:05.362Z,9376.00
2018-03-19T09:20:05.556Z,9476.00
2018-03-19T09:21:05.720Z,9784.00
2018-03-19T09:22:05.896Z,9368.00
2018-03-19T09:23:06.072Z,8936.00
2018-03-19T09:24:06.314Z,8764.00
2018-03-19T09:25:06.423Z,8820.00
2018-03-19T09:26:06.605Z,8908.00
2018-03-19T09:27:06.767Z,8804.00
2018-03-19T09:28:06.946Z,8916.00
2018-03-19T09:29:07.119Z,8940.00
2018-03-19T09:30:07.301Z,9056.00
2018-03-19T09:31:07.523Z,9080.00
2018-03-19T09:32:07.652Z,9136.00
2018-03-19T09:33:07.845Z,9336.00
2018-03-19T09:34:08.002Z,9192.00
2018-03-19T09:35:08.194Z,9200.00
2018-03-19T09:36:09.336Z,9408.00
2018-03-19T09:37:08.544Z,9428.00
2018-03-19T09:38:08.713Z,9596.00
2018-03-19T09:39:08.888Z,9644.00
2018-03-19T09:40:09.181Z,9596.00
2018-03-19T09:41:09.349Z,8732.00
2018-03-19T09:42:09.420Z,8668.00
2018-03-19T09:43:09.648Z,8692.00
2018-03-19T09:44:09.883Z,9124.00
2018-03-19T09:45:09.951Z,9336.00
2018-03-19T09:46:10.103Z,8972.00
2018-03-19T09:47:10.340Z,9256.00
2018-03-19T09:48:10.556Z,9012.00
2018-03-19T09:49:10.855Z,8868.00
2018-03-19T09:50:10.822Z,8380.00
2018-03-19T09:51:11.076Z,8124.00
2018-03-19T09:52:11.164Z,7952.00
2018-03-19T09:53:11.839Z,7568.00
2018-03-19T09:54:11.486Z,7360.00
2018-03-19T09:55:11.662Z,7772.00
2018-03-19T09:56:11.866Z,8088.00
2018-03-19T09:57:12.000Z,7424.00
2018-03-19T09:58:12.202Z,8296.00
2018-03-19T09:59:12.403Z,7588.00
2018-03-19T10:00:12.576Z,7304.00
2018-03-19T10:01:12.789Z,7020.00
2018-03-19T10:02:12.920Z,6780.00
2018-03-19T10:03:13.087Z,6668.00
2018-03-19T10:04:13.261Z,7188.00
2018-03-19T10:05:13.432Z,6980.00
2018-03-19T10:06:13.598Z,7652.00
2018-03-19T10:07:13.760Z,7596.00
2018-03-19T10:08:13.929Z,7496.00
2018-03-19T10:09:14.104Z,7480.00
2018-03-19T10:10:14.574Z,7484.00
2018-03-19T10:11:14.457Z,7052.00
2018-03-19T10:12:14.627Z,6820.00
2018-03-19T10:13:14.818Z,7108.00
2018-03-19T10:14:14.995Z,7228.00
2018-03-19T10:15:15.163Z,7388.00
2018-03-19T10:16:15.396Z,7424.00
2018-03-19T10:17:15.512Z,7668.00
2018-03-19T10:18:15.693Z,7544.00
2018-03-19T10:19:15.872Z,7720.00
2018-03-19T10:20:16.051Z,7344.00
2018-03-19T10:21:16.342Z,7256.00
2018-03-19T10:22:16.403Z,7512.00
2018-03-19T10:23:16.586Z,6920.00
2018-03-19T10:24:16.753Z,6712.00
2018-03-19T10:25:16.929Z,6652.00
2018-03-19T10:26:17.102Z,6300.00
2018-03-19T10:27:17.275Z,6464.00
2018-03-19T10:28:17.449Z,6652.00
2018-03-19T10:29:17.628Z,6536.00
2018-03-19T10:30:17.816Z,6856.00
2018-03-19T10:31:17.981Z,6848.00
2018-03-19T10:32:18.157Z,7060.00
2018-03-19T10:34:18.507Z,7056.00
2018-03-19T10:35:18.679Z,7028.00
2018-03-19T10:36:19.521Z,6792.00
2018-03-19T10:37:19.116Z,7192.00
2018-03-19T10:38:19.295Z,7028.00
2018-03-19T10:39:19.468Z,7100.00
2018-03-19T10:40:19.643Z,7220.00
2018-03-19T10:41:19.828Z,7400.00
2018-03-19T10:42:19.997Z,7280.00
2018-03-19T10:43:20.195Z,7192.00
2018-03-19T10:44:20.357Z,7256.00
2018-03-19T10:45:20.534Z,7264.00
2018-03-19T10:46:20.713Z,7232.00
2018-03-19T10:47:20.892Z,7240.00
2018-03-19T10:48:21.071Z,7296.00
2018-03-19T10:49:21.263Z,7204.00
2018-03-19T10:50:21.431Z,7236.00
2018-03-19T10:51:21.774Z,7284.00
2018-03-19T10:52:21.819Z,7276.00
2018-03-19T10:53:22.008Z,7468.00
2018-03-19T10:54:22.435Z,7420.00
2018-03-19T10:55:22.363Z,7236.00
2018-03-19T10:56:22.548Z,7332.00
2018-03-19T10:57:22.725Z,7440.00
2018-03-19T10:58:22.883Z,7420.00
2018-03-19T10:59:23.070Z,7184.00
2018-03-19T11:00:23.247Z,6640.00
2018-03-19T11:01:23.440Z,6924.00
2018-03-19T11:02:23.615Z,7184.00
2018-03-19T11:03:23.803Z,7196.00
2018-03-19T11:04:24.194Z,6912.00
2018-03-19T11:05:24.143Z,6848.00
2018-03-19T11:06:24.316Z,6488.00
2018-03-19T11:07:24.513Z,7156.00
2018-03-19T11:08:24.686Z,6920.00
2018-03-19T11:09:24.868Z,6936.00
2018-03-19T11:10:25.062Z,6796.00
2018-03-19T11:11:25.222Z,6920.00
2018-03-19T11:12:25.475Z,6908.00
2018-03-19T11:13:25.573Z,6908.00
2018-03-19T11:14:25.783Z,6924.00
2018-03-19T11:15:25.921Z,7008.00
2018-03-19T11:16:26.117Z,6620.00
2018-03-19T11:17:26.286Z,5716.00
2018-03-19T11:18:26.458Z,6200.00
2018-03-19T11:19:26.609Z,6360.00
2018-03-19T11:20:26.793Z,6588.00
2018-03-19T11:21:26.971Z,6656.00
2018-03-19T11:22:27.141Z,6668.00
2018-03-19T11:23:27.319Z,6608.00
2018-03-19T11:24:27.501Z,6480.00
2018-03-19T11:25:27.677Z,6560.00
2018-03-19T11:26:27.855Z,6576.00
2018-03-19T11:27:28.033Z,6036.00
2018-03-19T11:28:28.316Z,6036.00
2018-03-19T11:29:28.381Z,6224.00
2018-03-19T11:30:28.571Z,6356.00
2018-03-19T11:31:28.739Z,6028.00
2018-03-19T11:32:28.933Z,6164.00
2018-03-19T11:33:29.100Z,6240.00
2018-03-19T11:34:29.280Z,6188.00
2018-03-19T11:35:29.454Z,6336.00
2018-03-19T11:36:29.687Z,6220.00
2018-03-19T11:37:29.822Z,6180.00
2018-03-19T11:38:30.004Z,6104.00
2018-03-19T11:39:30.178Z,6036.00
2018-03-19T11:40:30.367Z,5972.00
2018-03-19T11:41:30.572Z,6072.00
2018-03-19T11:42:30.706Z,5804.00
2018-03-19T11:43:30.885Z,5576.00
2018-03-19T11:44:31.086Z,5544.00
2018-03-19T11:45:31.252Z,5568.00
2018-03-19T11:46:31.448Z,5560.00
2018-03-19T11:47:31.624Z,5880.00
2018-03-19T11:48:31.794Z,5936.00
2018-03-19T11:49:31.979Z,5912.00
2018-03-19T11:50:32.196Z,5868.00
2018-03-19T11:51:32.341Z,5820.00
2018-03-19T11:52:32.515Z,5788.00
2018-03-19T11:53:32.694Z,5712.00
2018-03-19T11:54:32.857Z,5732.00
2018-03-19T11:55:33.035Z,5652.00
2018-03-19T11:56:33.242Z,5580.00
2018-03-19T11:57:33.398Z,5596.00
2018-03-19T11:58:33.558Z,5548.00
2018-03-19T11:59:33.730Z,5540.00
2018-03-19T12:00:33.905Z,5472.00
2018-03-19T12:01:34.162Z,5408.00
2018-03-19T12:02:34.266Z,5360.00
2018-03-19T12:03:34.445Z,5328.00
2018-03-19T12:04:34.640Z,5236.00
2018-03-19T12:05:34.770Z,5236.00
2018-03-19T12:06:34.970Z,5184.00
2018-03-19T12:07:35.184Z,5240.00
2018-03-19T12:08:35.284Z,5208.00
2018-03-19T12:09:35.698Z,5164.00
2018-03-19T12:10:36.583Z,5140.00
2018-03-19T12:11:35.876Z,5164.00
2018-03-19T12:12:36.034Z,5104.00
2018-03-19T12:13:36.217Z,5068.00
2018-03-19T12:14:36.377Z,5024.00
2018-03-19T12:15:36.542Z,5012.00
2018-03-19T12:16:36.695Z,5012.00
2018-03-19T12:17:36.874Z,4960.00
2018-03-19T12:18:37.087Z,4984.00
2018-03-19T12:19:37.222Z,4996.00
2018-03-19T12:20:37.478Z,4948.00
2018-03-19T12:21:37.622Z,4952.00
2018-03-19T12:22:37.807Z,4952.00
2018-03-19T12:23:38.021Z,4916.00
2018-03-19T12:24:38.259Z,4896.00
2018-03-19T12:25:38.303Z,4860.00
2018-03-19T12:26:38.614Z,4812.00
2018-03-19T12:27:38.653Z,4796.00
2018-03-19T12:28:38.843Z,4744.00
2018-03-19T12:29:38.992Z,4796.00
2018-03-19T12:30:39.189Z,4772.00
2018-03-19T12:31:39.329Z,4776.00
2018-03-19T12:32:39.496Z,4800.00
2018-03-19T12:33:39.688Z,4832.00
2018-03-19T12:34:39.864Z,4856.00
2018-03-19T12:35:40.068Z,4812.00
2018-03-19T12:36:40.235Z,4832.00
2018-03-19T12:37:40.452Z,4844.00
2018-03-19T12:38:40.559Z,4808.00
2018-03-19T12:39:40.773Z,4816.00
2018-03-19T12:40:40.906Z,4900.00
2018-03-19T12:41:41.080Z,4856.00